sensor_id;sensor_type;location;lat;lon;timestamp;P1;durP1;ratioP1;P2;durP2;ratioP2
29254;SDS011;16277;48.890;2.306;2024-03-08T00:14:14;30.33;;;27.47;;
29254;SDS011;16277;48.890;2.306;2024-03-08T00:29:19;37.53;;;28.63;;
29254;SDS011;16277;48.890;2.306;2024-03-08T00:44:25;34.00;;;29.67;;
29254;SDS011;16277;48.890;2.306;2024-03-08T00:59:29;31.20;;;28.17;;
29254;SDS011;16277;48.890;2.306;2024-03-08T01:14:35;36.17;;;30.20;;
29254;SDS011;16277;48.890;2.306;2024-03-08T01:29:40;33.13;;;29.80;;
29254;SDS011;16277;48.890;2.306;2024-03-08T01:44:45;39.10;;;31.23;;
29254;SDS011;16277;48.890;2.306;2024-03-08T01:59:49;35.93;;;32.07;;
29254;SDS011;16277;48.890;2.306;2024-03-08T02:14:57;38.40;;;34.13;;
29254;SDS011;16277;48.890;2.306;2024-03-08T02:30:02;38.97;;;34.83;;
29254;SDS011;16277;48.890;2.306;2024-03-08T02:45:08;37.77;;;33.73;;
29254;SDS011;16277;48.890;2.306;2024-03-08T03:00:14;39.73;;;35.17;;
29254;SDS011;16277;48.890;2.306;2024-03-08T03:15:19;38.30;;;34.20;;
29254;SDS011;16277;48.890;2.306;2024-03-08T03:30:28;38.23;;;34.13;;
29254;SDS011;16277;48.890;2.306;2024-03-08T03:45:36;42.37;;;33.50;;
29254;SDS011;16277;48.890;2.306;2024-03-08T04:00:41;40.37;;;35.27;;
29254;SDS011;16277;48.890;2.306;2024-03-08T04:15:46;38.80;;;34.77;;
29254;SDS011;16277;48.890;2.306;2024-03-08T04:30:52;39.77;;;34.07;;
29254;SDS011;16277;48.890;2.306;2024-03-08T04:45:57;38.27;;;34.10;;
29254;SDS011;16277;48.890;2.306;2024-03-08T05:01:02;43.60;;;36.47;;
29254;SDS011;16277;48.890;2.306;2024-03-08T05:16:07;44.47;;;36.80;;
29254;SDS011;16277;48.890;2.306;2024-03-08T05:31:14;44.97;;;36.17;;
29254;SDS011;16277;48.890;2.306;2024-03-08T05:46:23;47.90;;;38.03;;
29254;SDS011;16277;48.890;2.306;2024-03-08T06:01:28;54.53;;;39.03;;
29254;SDS011;16277;48.890;2.306;2024-03-08T06:16:33;57.27;;;37.87;;
29254;SDS011;16277;48.890;2.306;2024-03-08T06:31:39;59.90;;;40.67;;
29254;SDS011;16277;48.890;2.306;2024-03-08T06:46:43;48.73;;;38.50;;
29254;SDS011;16277;48.890;2.306;2024-03-08T07:01:48;58.10;;;38.87;;
29254;SDS011;16277;48.890;2.306;2024-03-08T07:16:53;53.77;;;37.43;;
29254;SDS011;16277;48.890;2.306;2024-03-08T07:31:59;49.60;;;38.93;;
29254;SDS011;16277;48.890;2.306;2024-03-08T07:47:15;52.87;;;38.90;;
29254;SDS011;16277;48.890;2.306;2024-03-08T08:02:24;54.10;;;37.57;;
29254;SDS011;16277;48.890;2.306;2024-03-08T08:17:28;58.27;;;37.90;;
29254;SDS011;16277;48.890;2.306;2024-03-08T08:32:33;54.13;;;39.13;;
29254;SDS011;16277;48.890;2.306;2024-03-08T08:47:39;51.67;;;35.37;;
29254;SDS011;16277;48.890;2.306;2024-03-08T09:02:45;52.27;;;32.60;;
29254;SDS011;16277;48.890;2.306;2024-03-08T09:17:50;65.70;;;35.63;;
29254;SDS011;16277;48.890;2.306;2024-03-08T09:32:54;40.00;;;30.67;;
29254;SDS011;16277;48.890;2.306;2024-03-08T09:48:01;45.47;;;27.00;;
29254;SDS011;16277;48.890;2.306;2024-03-08T10:03:06;27.53;;;23.43;;
29254;SDS011;16277;48.890;2.306;2024-03-08T10:18:13;30.30;;;20.07;;
29254;SDS011;16277;48.890;2.306;2024-03-08T10:33:18;26.90;;;18.17;;
29254;SDS011;16277;48.890;2.306;2024-03-08T10:48:26;29.10;;;16.57;;
29254;SDS011;16277;48.890;2.306;2024-03-08T11:03:46;21.10;;;13.70;;
29254;SDS011;16277;48.890;2.306;2024-03-08T11:18:56;15.90;;;13.70;;
29254;SDS011;16277;48.890;2.306;2024-03-08T11:34:10;17.87;;;12.97;;
29254;SDS011;16277;48.890;2.306;2024-03-08T11:49:21;18.13;;;11.17;;
29254;SDS011;16277;48.890;2.306;2024-03-08T12:04:26;13.43;;;11.90;;
29254;SDS011;16277;48.890;2.306;2024-03-08T12:19:31;12.53;;;10.50;;
29254;SDS011;16277;48.890;2.306;2024-03-08T12:34:35;10.93;;;10.17;;
29254;SDS011;16277;48.890;2.306;2024-03-08T12:49:40;17.80;;;10.30;;
29254;SDS011;16277;48.890;2.306;2024-03-08T13:04:45;11.27;;;10.33;;
29254;SDS011;16277;48.890;2.306;2024-03-08T13:19:58;9.43;;;8.57;;
29254;SDS011;16277;48.890;2.306;2024-03-08T13:35:03;15.53;;;7.97;;
29254;SDS011;16277;48.890;2.306;2024-03-08T13:50:15;7.67;;;6.53;;
29254;SDS011;16277;48.890;2.306;2024-03-08T14:05:25;12.23;;;5.10;;
29254;SDS011;16277;48.890;2.306;2024-03-08T14:20:29;5.63;;;3.73;;
29254;SDS011;16277;48.890;2.306;2024-03-08T14:35:34;17.03;;;3.83;;
29254;SDS011;16277;48.890;2.306;2024-03-08T14:50:39;3.93;;;3.73;;
29254;SDS011;16277;48.890;2.306;2024-03-08T15:05:43;5.80;;;4.20;;
29254;SDS011;16277;48.890;2.306;2024-03-08T15:20:51;3.57;;;3.20;;
29254;SDS011;16277;48.890;2.306;2024-03-08T15:35:56;5.23;;;2.97;;
29254;SDS011;16277;48.890;2.306;2024-03-08T15:51:03;13.53;;;3.37;;
29254;SDS011;16277;48.890;2.306;2024-03-08T16:06:09;3.60;;;3.40;;
29254;SDS011;16277;48.890;2.306;2024-03-08T16:21:13;2.37;;;2.17;;
29254;SDS011;16277;48.890;2.306;2024-03-08T16:36:18;5.63;;;2.20;;
29254;SDS011;16277;48.890;2.306;2024-03-08T16:51:23;6.40;;;2.40;;
29254;SDS011;16277;48.890;2.306;2024-03-08T17:06:28;4.67;;;2.50;;
29254;SDS011;16277;48.890;2.306;2024-03-08T17:21:33;3.73;;;3.43;;
29254;SDS011;16277;48.890;2.306;2024-03-08T17:36:37;7.97;;;2.97;;
29254;SDS011;16277;48.890;2.306;2024-03-08T17:51:42;5.77;;;3.03;;
29254;SDS011;16277;48.890;2.306;2024-03-08T18:06:47;3.53;;;3.23;;
29254;SDS011;16277;48.890;2.306;2024-03-08T18:21:55;9.77;;;3.73;;
29254;SDS011;16277;48.890;2.306;2024-03-08T18:37:00;4.00;;;3.80;;
29254;SDS011;16277;48.890;2.306;2024-03-08T18:52:06;10.50;;;4.13;;
29254;SDS011;16277;48.890;2.306;2024-03-08T19:07:10;6.60;;;6.10;;
29254;SDS011;16277;48.890;2.306;2024-03-08T19:22:15;7.27;;;3.37;;
29254;SDS011;16277;48.890;2.306;2024-03-08T19:37:20;5.53;;;5.17;;
29254;SDS011;16277;48.890;2.306;2024-03-08T19:52:25;13.77;;;2.47;;
29254;SDS011;16277;48.890;2.306;2024-03-08T20:07:29;6.97;;;3.00;;
29254;SDS011;16277;48.890;2.306;2024-03-08T20:22:34;3.27;;;3.17;;
29254;SDS011;16277;48.890;2.306;2024-03-08T20:37:40;3.43;;;3.33;;
29254;SDS011;16277;48.890;2.306;2024-03-08T20:52:45;3.97;;;2.00;;
29254;SDS011;16277;48.890;2.306;2024-03-08T21:07:52;5.00;;;1.93;;
29254;SDS011;16277;48.890;2.306;2024-03-08T21:22:57;7.00;;;1.80;;
29254;SDS011;16277;48.890;2.306;2024-03-08T21:38:03;2.47;;;2.30;;
29254;SDS011;16277;48.890;2.306;2024-03-08T21:53:09;1.43;;;1.33;;
29254;SDS011;16277;48.890;2.306;2024-03-08T22:08:28;2.23;;;1.27;;
29254;SDS011;16277;48.890;2.306;2024-03-08T22:23:35;2.53;;;1.87;;
29254;SDS011;16277;48.890;2.306;2024-03-08T22:38:40;1.20;;;1.20;;
29254;SDS011;16277;48.890;2.306;2024-03-08T22:53:45;1.50;;;1.20;;
29254;SDS011;16277;48.890;2.306;2024-03-08T23:08:49;0.93;;;0.93;;
29254;SDS011;16277;48.890;2.306;2024-03-08T23:23:54;0.97;;;0.97;;
29254;SDS011;16277;48.890;2.306;2024-03-08T23:38:58;5.33;;;1.20;;
29254;SDS011;16277;48.890;2.306;2024-03-08T23:54:03;2.57;;;2.33;;
